Terminal Aerodrome Forecast
Issued by NWS Corpus Christi, TX

Current Version | Previous Version | Text Only | Print | Product List | Glossary Off
Versions: 1 2 3 4 5 6 7 8 9 10 11 12 13 14 15 16 17 18 19 20 21 22

000
FTUS44 KCRP 031700
TAFCRP
TAF
KCRP 031729Z 0318/0418 18010KT 3SM BR BKN003 OVC007
     FM032000 16014G20KT 6SM BR OVC015
     FM040100 16010KT 3SM BR OVC002
     FM040400 16008KT 1/2SM FG OVC002=

USA.gov is the U.S. government's official web portal to all federal, state and local government web resources and services.